createdAt,value
2019-03-23T20:40:48.971Z,97319.05
2019-03-23T20:43:19.344Z,97320.88
2019-03-23T20:45:48.587Z,97325.20
2019-03-23T20:48:17.959Z,97323.74
2019-03-23T20:50:46.969Z,97323.57
2019-03-23T20:53:16.576Z,97324.41
2019-03-23T20:55:45.267Z,97329.67
2019-03-23T20:58:13.752Z,97331.05
2019-03-23T21:00:41.804Z,97335.11
2019-03-23T21:03:09.690Z,97337.67
2019-03-23T21:05:37.640Z,97335.44
2019-03-23T21:08:06.148Z,97330.51
2019-03-23T21:10:35.042Z,97326.85
2019-03-23T21:13:04.175Z,97330.17
2019-03-23T21:15:32.290Z,97324.92
2019-03-23T21:18:00.578Z,97329.68
2019-03-23T21:20:32.008Z,97321.47
2019-03-23T21:22:59.914Z,97324.12
2019-03-23T21:25:29.670Z,97313.55
2019-03-23T21:27:58.663Z,97315.48
2019-03-23T21:30:28.149Z,97319.40
2019-03-23T21:32:57.207Z,97314.20
2019-03-23T21:35:26.655Z,97311.75
2019-03-23T21:37:55.775Z,97314.81
2019-03-23T21:40:25.369Z,97314.61
2019-03-23T21:42:53.379Z,97315.94
2019-03-23T21:45:21.412Z,97306.49
2019-03-23T21:47:49.143Z,97311.65
2019-03-23T21:50:18.157Z,97306.66
2019-03-23T21:52:46.566Z,97312.13
2019-03-23T21:55:15.067Z,97307.06
2019-03-23T21:57:43.091Z,97309.61
2019-03-23T22:00:19.395Z,97312.66
2019-03-23T22:02:47.103Z,97307.38
2019-03-23T22:05:16.123Z,97303.47
2019-03-23T22:07:43.862Z,97298.04
2019-03-23T22:10:11.769Z,97299.50
2019-03-23T22:12:40.645Z,97304.91
2019-03-23T22:15:08.945Z,97303.81
2019-03-23T22:17:36.901Z,97304.81
2019-03-23T22:20:06.720Z,97296.42
2019-03-23T22:22:34.924Z,97291.32
2019-03-23T22:25:02.971Z,97293.54
2019-03-23T22:27:31.218Z,97295.78
2019-03-23T22:30:00.591Z,97294.84
2019-03-23T22:32:29.316Z,97291.47
2019-03-23T22:34:57.433Z,97295.63
2019-03-23T22:37:26.351Z,97293.70
2019-03-23T22:39:54.467Z,97295.25
2019-03-23T22:42:23.606Z,97291.67
2019-03-23T22:44:52.682Z,97289.59
2019-03-23T22:47:21.008Z,97282.39
2019-03-23T22:49:49.699Z,97282.56
2019-03-23T22:52:17.773Z,97285.30
2019-03-23T22:54:46.297Z,97273.80
2019-03-23T22:57:14.311Z,97273.42
2019-03-23T22:59:43.019Z,97272.42
2019-03-23T23:02:11.174Z,97271.20
2019-03-23T23:04:39.093Z,97271.69
2019-03-23T23:07:07.945Z,97269.28
2019-03-23T23:09:37.302Z,97266.84
2019-03-23T23:12:07.205Z,97260.27
2019-03-23T23:14:35.774Z,97259.87
2019-03-23T23:17:03.921Z,97260.86
2019-03-23T23:19:31.663Z,97256.23
2019-03-23T23:22:00.043Z,97255.08
2019-03-23T23:24:28.139Z,97256.24
2019-03-23T23:26:55.990Z,97247.19
2019-03-23T23:29:25.044Z,97247.67
2019-03-23T23:31:53.554Z,97245.69
2019-03-23T23:34:22.028Z,97247.66
2019-03-23T23:36:50.119Z,97245.42
2019-03-23T23:39:19.959Z,97247.94
2019-03-23T23:41:48.381Z,97242.59
2019-03-23T23:44:17.611Z,97240.05
2019-03-23T23:46:45.983Z,97235.16
2019-03-23T23:49:14.067Z,97238.31
2019-03-23T23:51:49.747Z,97243.52
2019-03-23T23:54:11.983Z,97233.80
2019-03-23T23:56:40.042Z,97231.26
2019-03-23T23:59:08.308Z,97228.75
